sensor_id;sensor_type;location;lat;lon;timestamp;pressure;altitude;pressure_sealevel;temperature;humidity
66479;BME280;53294;47.912;13.526;2022-10-17T00:00:42;96855.94;;;15.55;60.22
66479;BME280;53294;47.912;13.526;2022-10-17T00:03:09;96857.16;;;15.49;60.95
66479;BME280;53294;47.912;13.526;2022-10-17T00:05:40;96861.16;;;15.51;61.00
66479;BME280;53294;47.912;13.526;2022-10-17T00:08:08;96858.84;;;15.58;60.85
66479;BME280;53294;47.912;13.526;2022-10-17T00:10:36;96860.50;;;15.46;62.50
66479;BME280;53294;47.912;13.526;2022-10-17T00:13:03;96863.56;;;15.53;62.57
66479;BME280;53294;47.912;13.526;2022-10-17T00:15:30;96862.81;;;15.61;61.81
66479;BME280;53294;47.912;13.526;2022-10-17T00:17:58;96867.91;;;15.62;62.38
66479;BME280;53294;47.912;13.526;2022-10-17T00:20:25;96869.66;;;15.58;62.01
66479;BME280;53294;47.912;13.526;2022-10-17T00:22:52;96868.06;;;15.57;62.96
66479;BME280;53294;47.912;13.526;2022-10-17T00:25:19;96874.25;;;15.58;62.25
66479;BME280;53294;47.912;13.526;2022-10-17T00:27:45;96868.44;;;15.73;61.75
66479;BME280;53294;47.912;13.526;2022-10-17T00:30:13;96866.66;;;15.69;62.64
66479;BME280;53294;47.912;13.526;2022-10-17T00:32:41;96865.09;;;15.76;61.95
66479;BME280;53294;47.912;13.526;2022-10-17T00:35:08;96871.38;;;15.77;62.72
66479;BME280;53294;47.912;13.526;2022-10-17T00:37:34;96862.22;;;15.73;62.76
66479;BME280;53294;47.912;13.526;2022-10-17T00:40:02;96859.41;;;15.78;62.81
66479;BME280;53294;47.912;13.526;2022-10-17T00:42:29;96869.16;;;15.88;62.26
66479;BME280;53294;47.912;13.526;2022-10-17T00:45:00;96862.97;;;15.87;62.78
66479;BME280;53294;47.912;13.526;2022-10-17T00:47:29;96869.97;;;15.88;62.85
66479;BME280;53294;47.912;13.526;2022-10-17T00:49:56;96864.41;;;15.93;62.81
66479;BME280;53294;47.912;13.526;2022-10-17T00:52:26;96861.53;;;15.90;62.63
66479;BME280;53294;47.912;13.526;2022-10-17T00:54:57;96855.66;;;15.96;62.79
66479;BME280;53294;47.912;13.526;2022-10-17T00:57:27;96846.06;;;15.90;62.85
66479;BME280;53294;47.912;13.526;2022-10-17T00:59:56;96848.16;;;15.93;63.07
66479;BME280;53294;47.912;13.526;2022-10-17T01:02:24;96846.44;;;15.97;62.78
66479;BME280;53294;47.912;13.526;2022-10-17T01:04:53;96849.88;;;15.81;63.60
66479;BME280;53294;47.912;13.526;2022-10-17T01:07:22;96857.22;;;15.80;63.46
66479;BME280;53294;47.912;13.526;2022-10-17T01:09:48;96856.19;;;15.76;63.55
66479;BME280;53294;47.912;13.526;2022-10-17T01:31:45;96853.16;;;16.09;61.28
66479;BME280;53294;47.912;13.526;2022-10-17T01:34:20;96853.25;;;15.95;62.47
66479;BME280;53294;47.912;13.526;2022-10-17T01:42:19;96854.38;;;15.94;62.36
66479;BME280;53294;47.912;13.526;2022-10-17T01:45:19;96849.25;;;15.92;63.34
66479;BME280;53294;47.912;13.526;2022-10-17T01:47:49;96856.91;;;15.59;64.54
66479;BME280;53294;47.912;13.526;2022-10-17T01:50:45;96853.75;;;15.66;64.20
66479;BME280;53294;47.912;13.526;2022-10-17T01:53:26;96856.13;;;15.58;64.83
66479;BME280;53294;47.912;13.526;2022-10-17T01:55:56;96848.13;;;15.53;64.60
66479;BME280;53294;47.912;13.526;2022-10-17T01:58:29;96857.28;;;15.66;63.77
66479;BME280;53294;47.912;13.526;2022-10-17T02:01:00;96854.28;;;15.45;65.24
66479;BME280;53294;47.912;13.526;2022-10-17T02:03:28;96863.41;;;15.49;65.18
66479;BME280;53294;47.912;13.526;2022-10-17T02:05:56;96850.41;;;15.60;64.36
66479;BME280;53294;47.912;13.526;2022-10-17T02:08:49;96854.25;;;15.68;64.09
66479;BME280;53294;47.912;13.526;2022-10-17T02:11:19;96850.59;;;15.41;65.57
66479;BME280;53294;47.912;13.526;2022-10-17T02:19:56;96858.22;;;15.39;64.50
66479;BME280;53294;47.912;13.526;2022-10-17T02:25:17;96862.03;;;15.38;64.52
66479;BME280;53294;47.912;13.526;2022-10-17T02:28:08;96856.38;;;15.48;64.25
66479;BME280;53294;47.912;13.526;2022-10-17T02:30:52;96868.34;;;15.24;65.55
66479;BME280;53294;47.912;13.526;2022-10-17T02:33:24;96866.56;;;15.20;65.56
66479;BME280;53294;47.912;13.526;2022-10-17T02:35:57;96866.19;;;15.13;66.50
66479;BME280;53294;47.912;13.526;2022-10-17T02:38:26;96870.44;;;15.05;66.45
66479;BME280;53294;47.912;13.526;2022-10-17T02:40:54;96876.28;;;14.98;66.32
66479;BME280;53294;47.912;13.526;2022-10-17T02:43:22;96869.47;;;15.01;66.34
66479;BME280;53294;47.912;13.526;2022-10-17T02:45:50;96866.97;;;15.13;65.40
66479;BME280;53294;47.912;13.526;2022-10-17T02:51:14;96875.00;;;15.18;64.93
66479;BME280;53294;47.912;13.526;2022-10-17T02:54:19;96880.19;;;15.15;65.39
66479;BME280;53294;47.912;13.526;2022-10-17T02:56:59;96872.66;;;15.03;65.75
66479;BME280;53294;47.912;13.526;2022-10-17T02:59:29;96877.78;;;15.13;64.99
66479;BME280;53294;47.912;13.526;2022-10-17T03:01:56;96869.06;;;15.16;64.69
66479;BME280;53294;47.912;13.526;2022-10-17T03:04:23;96873.75;;;15.24;64.20
66479;BME280;53294;47.912;13.526;2022-10-17T03:06:50;96884.31;;;15.35;63.73
66479;BME280;53294;47.912;13.526;2022-10-17T03:09:16;96883.34;;;15.31;63.56
66479;BME280;53294;47.912;13.526;2022-10-17T03:11:43;96882.84;;;15.06;65.17
66479;BME280;53294;47.912;13.526;2022-10-17T03:14:09;96887.53;;;15.14;64.53
66479;BME280;53294;47.912;13.526;2022-10-17T03:16:36;96884.88;;;15.00;65.04
66479;BME280;53294;47.912;13.526;2022-10-17T03:19:03;96890.50;;;15.04;64.92
66479;BME280;53294;47.912;13.526;2022-10-17T03:21:30;96888.41;;;15.01;64.92
66479;BME280;53294;47.912;13.526;2022-10-17T03:23:56;96890.09;;;14.97;65.22
66479;BME280;53294;47.912;13.526;2022-10-17T03:26:23;96885.88;;;15.04;64.66
66479;BME280;53294;47.912;13.526;2022-10-17T03:28:50;96892.81;;;15.19;63.78
66479;BME280;53294;47.912;13.526;2022-10-17T03:31:20;96887.41;;;14.97;64.62
66479;BME280;53294;47.912;13.526;2022-10-17T03:33:46;96888.34;;;14.78;65.79
66479;BME280;53294;47.912;13.526;2022-10-17T03:36:15;96890.94;;;14.83;65.22
66479;BME280;53294;47.912;13.526;2022-10-17T03:38:43;96898.75;;;14.85;65.01
66479;BME280;53294;47.912;13.526;2022-10-17T03:41:10;96896.91;;;14.94;64.66
66479;BME280;53294;47.912;13.526;2022-10-17T03:43:37;96903.31;;;14.98;64.28
66479;BME280;53294;47.912;13.526;2022-10-17T03:46:05;96906.56;;;14.86;64.94
66479;BME280;53294;47.912;13.526;2022-10-17T03:48:32;96909.59;;;14.71;65.66
66479;BME280;53294;47.912;13.526;2022-10-17T03:51:01;96910.03;;;14.64;65.75
66479;BME280;53294;47.912;13.526;2022-10-17T03:53:28;96912.63;;;14.42;66.83
66479;BME280;53294;47.912;13.526;2022-10-17T03:55:55;96902.91;;;14.68;65.53
66479;BME280;53294;47.912;13.526;2022-10-17T03:58:22;96908.50;;;14.72;64.95
66479;BME280;53294;47.912;13.526;2022-10-17T04:00:49;96906.91;;;14.71;65.23
66479;BME280;53294;47.912;13.526;2022-10-17T04:03:15;96906.41;;;14.69;65.08
66479;BME280;53294;47.912;13.526;2022-10-17T04:05:42;96915.41;;;14.78;64.48
66479;BME280;53294;47.912;13.526;2022-10-17T04:08:09;96909.00;;;14.74;64.69
66479;BME280;53294;47.912;13.526;2022-10-17T04:10:36;96915.53;;;14.73;64.74
66479;BME280;53294;47.912;13.526;2022-10-17T04:13:02;96914.81;;;14.53;65.23
66479;BME280;53294;47.912;13.526;2022-10-17T04:15:29;96908.19;;;14.60;65.07
66479;BME280;53294;47.912;13.526;2022-10-17T04:17:56;96911.63;;;14.65;64.77
66479;BME280;53294;47.912;13.526;2022-10-17T04:20:23;96918.44;;;14.63;64.70
66479;BME280;53294;47.912;13.526;2022-10-17T04:22:49;96913.34;;;14.61;64.90
66479;BME280;53294;47.912;13.526;2022-10-17T04:25:16;96909.00;;;14.46;65.74
66479;BME280;53294;47.912;13.526;2022-10-17T04:27:43;96916.53;;;14.63;64.65
66479;BME280;53294;47.912;13.526;2022-10-17T04:30:09;96912.81;;;14.73;63.94
66479;BME280;53294;47.912;13.526;2022-10-17T04:32:36;96915.41;;;14.78;63.66
66479;BME280;53294;47.912;13.526;2022-10-17T04:35:06;96914.63;;;14.78;63.80
66479;BME280;53294;47.912;13.526;2022-10-17T04:37:33;96916.81;;;14.62;64.54
66479;BME280;53294;47.912;13.526;2022-10-17T04:40:00;96916.63;;;14.44;65.46
66479;BME280;53294;47.912;13.526;2022-10-17T04:42:28;96925.22;;;14.46;65.25
66479;BME280;53294;47.912;13.526;2022-10-17T04:44:55;96923.84;;;14.49;64.90
66479;BME280;53294;47.912;13.526;2022-10-17T04:47:21;96923.03;;;14.48;64.92
66479;BME280;53294;47.912;13.526;2022-10-17T04:49:48;96926.72;;;14.52;64.77
66479;BME280;53294;47.912;13.526;2022-10-17T04:52:14;96922.53;;;14.46;64.75
66479;BME280;53294;47.912;13.526;2022-10-17T04:54:41;96923.63;;;14.59;64.27
66479;BME280;53294;47.912;13.526;2022-10-17T04:57:08;96923.84;;;14.49;64.64
66479;BME280;53294;47.912;13.526;2022-10-17T04:59:34;96929.25;;;14.49;64.44
66479;BME280;53294;47.912;13.526;2022-10-17T05:02:01;96928.53;;;14.43;64.52
66479;BME280;53294;47.912;13.526;2022-10-17T05:04:28;96931.25;;;14.43;64.33
66479;BME280;53294;47.912;13.526;2022-10-17T05:06:55;96929.84;;;14.46;64.24
66479;BME280;53294;47.912;13.526;2022-10-17T05:09:21;96919.16;;;14.41;64.29
66479;BME280;53294;47.912;13.526;2022-10-17T05:11:48;96924.84;;;14.39;64.67
66479;BME280;53294;47.912;13.526;2022-10-17T05:14:14;96924.84;;;14.39;64.25
66479;BME280;53294;47.912;13.526;2022-10-17T05:16:41;96931.94;;;14.35;64.24
66479;BME280;53294;47.912;13.526;2022-10-17T05:19:08;96939.47;;;14.38;63.95
66479;BME280;53294;47.912;13.526;2022-10-17T05:21:34;96935.84;;;14.15;64.99
66479;BME280;53294;47.912;13.526;2022-10-17T05:24:06;96935.66;;;14.11;65.09
66479;BME280;53294;47.912;13.526;2022-10-17T05:26:33;96935.06;;;14.14;64.68
66479;BME280;53294;47.912;13.526;2022-10-17T05:29:00;96933.44;;;14.13;64.49
66479;BME280;53294;47.912;13.526;2022-10-17T05:31:30;96938.66;;;13.96;65.08
66479;BME280;53294;47.912;13.526;2022-10-17T05:34:01;96937.84;;;13.81;65.49
66479;BME280;53294;47.912;13.526;2022-10-17T05:36:28;96942.13;;;13.82;65.38
66479;BME280;53294;47.912;13.526;2022-10-17T05:38:54;96942.72;;;13.79;65.60
66479;BME280;53294;47.912;13.526;2022-10-17T05:41:21;96954.63;;;13.78;65.45
66479;BME280;53294;47.912;13.526;2022-10-17T05:43:48;96953.72;;;13.69;65.65
66479;BME280;53294;47.912;13.526;2022-10-17T05:46:15;96962.09;;;13.68;65.59
66479;BME280;53294;47.912;13.526;2022-10-17T05:48:42;96959.38;;;13.54;66.24
66479;BME280;53294;47.912;13.526;2022-10-17T05:51:09;96963.72;;;13.50;66.42
66479;BME280;53294;47.912;13.526;2022-10-17T05:53:38;96967.38;;;13.59;65.74
66479;BME280;53294;47.912;13.526;2022-10-17T05:56:07;96970.56;;;13.61;65.38
66479;BME280;53294;47.912;13.526;2022-10-17T05:58:34;96967.56;;;13.49;66.31
66479;BME280;53294;47.912;13.526;2022-10-17T06:01:16;96961.97;;;13.59;65.29
66479;BME280;53294;47.912;13.526;2022-10-17T06:03:43;96966.09;;;13.37;66.47
66479;BME280;53294;47.912;13.526;2022-10-17T06:06:11;96961.13;;;13.44;66.20
66479;BME280;53294;47.912;13.526;2022-10-17T06:08:39;96969.38;;;13.67;65.15
66479;BME280;53294;47.912;13.526;2022-10-17T06:11:05;96973.78;;;13.63;65.52
66479;BME280;53294;47.912;13.526;2022-10-17T06:13:36;96975.06;;;13.52;66.03
66479;BME280;53294;47.912;13.526;2022-10-17T06:16:04;96973.94;;;13.53;65.91
66479;BME280;53294;47.912;13.526;2022-10-17T06:18:31;96974.72;;;13.39;67.06
66479;BME280;53294;47.912;13.526;2022-10-17T06:21:06;96971.16;;;13.58;65.92
66479;BME280;53294;47.912;13.526;2022-10-17T06:23:33;96980.94;;;13.54;66.06
66479;BME280;53294;47.912;13.526;2022-10-17T06:26:01;96980.13;;;13.72;65.41
66479;BME280;53294;47.912;13.526;2022-10-17T06:28:29;96987.81;;;13.79;65.23
66479;BME280;53294;47.912;13.526;2022-10-17T06:30:55;96983.22;;;13.79;65.35
66479;BME280;53294;47.912;13.526;2022-10-17T06:33:22;96980.00;;;13.77;65.68
66479;BME280;53294;47.912;13.526;2022-10-17T06:35:53;96987.53;;;13.80;66.02
66479;BME280;53294;47.912;13.526;2022-10-17T06:38:21;96983.22;;;13.79;66.00
66479;BME280;53294;47.912;13.526;2022-10-17T06:40:48;96981.97;;;13.91;65.87
66479;BME280;53294;47.912;13.526;2022-10-17T06:43:15;96985.88;;;13.98;65.64
66479;BME280;53294;47.912;13.526;2022-10-17T06:45:41;96987.69;;;14.03;65.58
66479;BME280;53294;47.912;13.526;2022-10-17T06:48:08;96991.47;;;14.02;65.67
66479;BME280;53294;47.912;13.526;2022-10-17T06:50:35;97001.06;;;13.94;66.45
66479;BME280;53294;47.912;13.526;2022-10-17T06:53:01;97002.09;;;13.79;67.79
66479;BME280;53294;47.912;13.526;2022-10-17T06:55:30;97002.66;;;13.62;69.10
66479;BME280;53294;47.912;13.526;2022-10-17T06:57:57;97001.22;;;13.51;69.82
66479;BME280;53294;47.912;13.526;2022-10-17T07:00:23;97004.22;;;13.50;70.03
66479;BME280;53294;47.912;13.526;2022-10-17T07:02:52;97011.94;;;13.56;70.01
66479;BME280;53294;47.912;13.526;2022-10-17T07:05:18;97014.56;;;13.61;69.75
66479;BME280;53294;47.912;13.526;2022-10-17T07:07:45;97004.44;;;13.86;68.41
66479;BME280;53294;47.912;13.526;2022-10-17T07:10:16;96998.22;;;13.86;68.67
66479;BME280;53294;47.912;13.526;2022-10-17T07:12:42;97008.66;;;13.92;68.70
66479;BME280;53294;47.912;13.526;2022-10-17T07:15:11;97008.41;;;14.08;68.17
66479;BME280;53294;47.912;13.526;2022-10-17T07:17:38;97019.91;;;14.13;68.55
66479;BME280;53294;47.912;13.526;2022-10-17T07:20:05;97017.50;;;14.12;68.59
66479;BME280;53294;47.912;13.526;2022-10-17T07:22:32;97024.09;;;14.19;68.35
66479;BME280;53294;47.912;13.526;2022-10-17T07:24:58;97021.34;;;14.25;68.15
66479;BME280;53294;47.912;13.526;2022-10-17T07:27:25;97024.63;;;14.35;68.02
66479;BME280;53294;47.912;13.526;2022-10-17T07:29:52;97024.13;;;14.33;67.95
66479;BME280;53294;47.912;13.526;2022-10-17T07:32:19;97028.16;;;14.50;67.82
66479;BME280;53294;47.912;13.526;2022-10-17T07:34:45;97027.94;;;14.46;68.20
66479;BME280;53294;47.912;13.526;2022-10-17T07:37:12;97036.34;;;14.59;67.72
66479;BME280;53294;47.912;13.526;2022-10-17T07:39:39;97034.53;;;14.54;68.46
66479;BME280;53294;47.912;13.526;2022-10-17T07:42:05;97032.97;;;14.53;68.97
66479;BME280;53294;47.912;13.526;2022-10-17T07:44:33;97033.63;;;14.45;69.73
66479;BME280;53294;47.912;13.526;2022-10-17T07:47:00;97031.94;;;14.49;69.82
66479;BME280;53294;47.912;13.526;2022-10-17T07:49:27;97035.38;;;14.54;69.88
66479;BME280;53294;47.912;13.526;2022-10-17T07:51:54;97042.47;;;14.50;70.59
66479;BME280;53294;47.912;13.526;2022-10-17T07:54:21;97039.16;;;14.53;70.36
66479;BME280;53294;47.912;13.526;2022-10-17T07:56:48;97036.78;;;14.66;69.76
66479;BME280;53294;47.912;13.526;2022-10-17T07:59:19;97039.78;;;14.92;68.59
66479;BME280;53294;47.912;13.526;2022-10-17T08:01:45;97035.56;;;15.00;68.90
66479;BME280;53294;47.912;13.526;2022-10-17T08:04:12;97039.78;;;15.06;68.95
66479;BME280;53294;47.912;13.526;2022-10-17T08:06:38;97042.03;;;15.26;68.83
66479;BME280;53294;47.912;13.526;2022-10-17T08:09:05;97034.28;;;15.34;69.05
66479;BME280;53294;47.912;13.526;2022-10-17T08:11:32;97045.38;;;14.96;71.82
66479;BME280;53294;47.912;13.526;2022-10-17T08:13:58;97039.34;;;15.13;71.47
66479;BME280;53294;47.912;13.526;2022-10-17T08:16:25;97045.13;;;15.34;70.09
66479;BME280;53294;47.912;13.526;2022-10-17T08:18:52;97043.69;;;15.00;72.93
66479;BME280;53294;47.912;13.526;2022-10-17T08:21:18;97046.09;;;14.87;73.22
66479;BME280;53294;47.912;13.526;2022-10-17T08:23:45;97043.34;;;15.29;71.50
66479;BME280;53294;47.912;13.526;2022-10-17T08:26:12;97039.63;;;15.61;70.52
66479;BME280;53294;47.912;13.526;2022-10-17T08:28:42;97049.19;;;15.82;69.74
66479;BME280;53294;47.912;13.526;2022-10-17T08:31:11;97044.69;;;16.00;69.17
66479;BME280;53294;47.912;13.526;2022-10-17T08:33:39;97043.06;;;16.21;68.60
66479;BME280;53294;47.912;13.526;2022-10-17T08:36:07;97041.19;;;16.30;68.61
66479;BME280;53294;47.912;13.526;2022-10-17T08:38:35;97040.97;;;16.49;67.52
66479;BME280;53294;47.912;13.526;2022-10-17T08:41:06;97039.22;;;16.54;67.68
66479;BME280;53294;47.912;13.526;2022-10-17T08:44:02;97040.69;;;16.60;66.81
66479;BME280;53294;47.912;13.526;2022-10-17T08:46:34;97045.72;;;16.44;67.46
66479;BME280;53294;47.912;13.526;2022-10-17T08:49:03;97039.53;;;16.52;67.88
66479;BME280;53294;47.912;13.526;2022-10-17T08:51:44;97032.44;;;16.02;69.33
66479;BME280;53294;47.912;13.526;2022-10-17T08:54:16;97044.13;;;16.43;68.45
66479;BME280;53294;47.912;13.526;2022-10-17T08:56:48;97044.50;;;16.59;67.47
66479;BME280;53294;47.912;13.526;2022-10-17T08:59:26;97036.19;;;16.95;67.13
66479;BME280;53294;47.912;13.526;2022-10-17T09:10:56;97029.56;;;17.71;67.21
66479;BME280;53294;47.912;13.526;2022-10-17T09:16:10;97033.72;;;17.77;65.72
66479;BME280;53294;47.912;13.526;2022-10-17T09:18:43;97022.38;;;17.93;66.88
66479;BME280;53294;47.912;13.526;2022-10-17T09:21:49;97023.34;;;18.44;64.88
66479;BME280;53294;47.912;13.526;2022-10-17T09:24:50;97021.88;;;19.15;62.33
66479;BME280;53294;47.912;13.526;2022-10-17T09:29:47;97021.69;;;19.63;62.00
66479;BME280;53294;47.912;13.526;2022-10-17T09:32:18;97024.28;;;19.80;61.04
66479;BME280;53294;47.912;13.526;2022-10-17T09:34:47;97026.72;;;19.73;60.78
66479;BME280;53294;47.912;13.526;2022-10-17T09:37:15;97026.38;;;19.96;60.62
66479;BME280;53294;47.912;13.526;2022-10-17T09:39:43;97018.84;;;20.14;60.45
66479;BME280;53294;47.912;13.526;2022-10-17T09:42:13;97016.38;;;19.87;61.19
66479;BME280;53294;47.912;13.526;2022-10-17T09:50:20;97019.28;;;19.82;60.71
66479;BME280;53294;47.912;13.526;2022-10-17T09:52:52;97017.88;;;20.68;58.75
66479;BME280;53294;47.912;13.526;2022-10-17T09:55:24;97021.31;;;20.65;59.06
66479;BME280;53294;47.912;13.526;2022-10-17T09:57:57;97028.31;;;20.41;58.37
66479;BME280;53294;47.912;13.526;2022-10-17T10:00:31;97032.09;;;20.03;59.17
66479;BME280;53294;47.912;13.526;2022-10-17T10:06:05;97031.00;;;20.74;57.23
66479;BME280;53294;47.912;13.526;2022-10-17T10:11:22;97039.41;;;20.23;57.89
66479;BME280;53294;47.912;13.526;2022-10-17T10:13:50;97023.28;;;20.18;58.50
66479;BME280;53294;47.912;13.526;2022-10-17T10:16:29;97026.22;;;20.25;57.99
66479;BME280;53294;47.912;13.526;2022-10-17T10:18:56;97025.28;;;20.79;57.24
66479;BME280;53294;47.912;13.526;2022-10-17T10:21:25;97028.38;;;20.78;56.30
66479;BME280;53294;47.912;13.526;2022-10-17T10:26:27;97031.94;;;21.31;56.19
66479;BME280;53294;47.912;13.526;2022-10-17T10:29:05;97026.22;;;21.61;55.68
66479;BME280;53294;47.912;13.526;2022-10-17T10:31:38;97029.44;;;21.51;54.25
66479;BME280;53294;47.912;13.526;2022-10-17T10:39:47;97015.03;;;23.58;51.12
66479;BME280;53294;47.912;13.526;2022-10-17T10:42:25;97024.00;;;23.03;50.62
66479;BME280;53294;47.912;13.526;2022-10-17T10:44:57;97027.59;;;22.56;52.69
66479;BME280;53294;47.912;13.526;2022-10-17T10:47:29;97015.16;;;24.04;48.34
66479;BME280;53294;47.912;13.526;2022-10-17T10:50:17;97019.63;;;23.54;48.58
66479;BME280;53294;47.912;13.526;2022-10-17T10:55:35;97014.84;;;22.80;51.29
66479;BME280;53294;47.912;13.526;2022-10-17T11:03:30;97027.00;;;22.98;50.12
66479;BME280;53294;47.912;13.526;2022-10-17T11:06:21;97019.16;;;22.81;50.72
66479;BME280;53294;47.912;13.526;2022-10-17T11:08:59;97019.22;;;23.00;48.87
66479;BME280;53294;47.912;13.526;2022-10-17T11:11:31;97026.22;;;22.34;51.36
66479;BME280;53294;47.912;13.526;2022-10-17T11:16:45;97017.63;;;22.99;50.12
66479;BME280;53294;47.912;13.526;2022-10-17T11:19:24;97016.84;;;23.15;50.62
66479;BME280;53294;47.912;13.526;2022-10-17T11:24:28;97016.97;;;22.70;50.79
66479;BME280;53294;47.912;13.526;2022-10-17T11:26:58;97006.78;;;23.38;50.36
66479;BME280;53294;47.912;13.526;2022-10-17T11:29:34;97004.50;;;24.45;47.22
66479;BME280;53294;47.912;13.526;2022-10-17T11:32:06;97007.88;;;24.35;48.20
66479;BME280;53294;47.912;13.526;2022-10-17T11:34:40;97002.75;;;25.06;46.18
66479;BME280;53294;47.912;13.526;2022-10-17T11:37:17;96999.69;;;24.58;46.30
66479;BME280;53294;47.912;13.526;2022-10-17T11:40:16;97013.72;;;23.71;47.71
66479;BME280;53294;47.912;13.526;2022-10-17T11:42:57;96998.88;;;24.58;47.48
66479;BME280;53294;47.912;13.526;2022-10-17T11:45:28;97002.22;;;24.70;46.68
66479;BME280;53294;47.912;13.526;2022-10-17T11:48:03;97002.75;;;24.10;49.30
66479;BME280;53294;47.912;13.526;2022-10-17T11:50:41;96994.53;;;24.80;47.12
66479;BME280;53294;47.912;13.526;2022-10-17T11:53:39;96989.41;;;26.37;43.89
66479;BME280;53294;47.912;13.526;2022-10-17T11:56:09;96989.31;;;26.30;43.94
66479;BME280;53294;47.912;13.526;2022-10-17T11:58:51;96992.81;;;25.89;43.73
66479;BME280;53294;47.912;13.526;2022-10-17T12:12:41;96984.94;;;24.70;46.93
66479;BME280;53294;47.912;13.526;2022-10-17T12:15:26;96981.56;;;25.68;45.17
66479;BME280;53294;47.912;13.526;2022-10-17T12:22:51;96986.31;;;23.91;47.65
66479;BME280;53294;47.912;13.526;2022-10-17T12:25:25;96985.59;;;23.55;48.85
66479;BME280;53294;47.912;13.526;2022-10-17T12:31:05;96985.84;;;23.10;49.46
66479;BME280;53294;47.912;13.526;2022-10-17T12:33:55;96986.66;;;22.79;50.15
66479;BME280;53294;47.912;13.526;2022-10-17T12:44:34;96980.19;;;24.67;47.51
66479;BME280;53294;47.912;13.526;2022-10-17T12:49:47;96985.78;;;24.74;46.71
66479;BME280;53294;47.912;13.526;2022-10-17T12:52:24;96975.50;;;24.67;46.90
66479;BME280;53294;47.912;13.526;2022-10-17T13:02:40;96979.81;;;25.86;45.58
66479;BME280;53294;47.912;13.526;2022-10-17T13:05:14;96974.97;;;26.10;43.44
66479;BME280;53294;47.912;13.526;2022-10-17T13:07:43;96984.44;;;26.09;44.25
66479;BME280;53294;47.912;13.526;2022-10-17T13:10:22;96978.97;;;26.16;43.20
66479;BME280;53294;47.912;13.526;2022-10-17T13:12:53;96978.78;;;26.39;44.23
66479;BME280;53294;47.912;13.526;2022-10-17T13:15:24;96982.97;;;26.22;44.99
66479;BME280;53294;47.912;13.526;2022-10-17T13:17:59;96975.56;;;26.75;44.30
66479;BME280;53294;47.912;13.526;2022-10-17T13:20:28;96978.72;;;25.94;45.37
66479;BME280;53294;47.912;13.526;2022-10-17T13:22:57;96978.09;;;26.49;43.58
66479;BME280;53294;47.912;13.526;2022-10-17T13:25:25;96975.38;;;26.53;42.87
66479;BME280;53294;47.912;13.526;2022-10-17T13:28:03;96975.56;;;26.75;43.07
66479;BME280;53294;47.912;13.526;2022-10-17T13:30:33;96975.09;;;27.28;42.40
66479;BME280;53294;47.912;13.526;2022-10-17T13:33:01;96982.69;;;26.83;43.05
66479;BME280;53294;47.912;13.526;2022-10-17T13:35:32;96973.47;;;27.20;42.28
66479;BME280;53294;47.912;13.526;2022-10-17T13:38:27;96984.00;;;26.48;41.92
66479;BME280;53294;47.912;13.526;2022-10-17T13:40:55;96990.72;;;26.13;43.06
66479;BME280;53294;47.912;13.526;2022-10-17T13:43:36;96989.00;;;25.97;44.01
66479;BME280;53294;47.912;13.526;2022-10-17T13:46:04;96990.59;;;25.98;43.62
66479;BME280;53294;47.912;13.526;2022-10-17T13:48:52;97000.47;;;26.03;43.67
66479;BME280;53294;47.912;13.526;2022-10-17T13:51:19;96993.72;;;25.33;45.37
66479;BME280;53294;47.912;13.526;2022-10-17T13:53:45;96976.91;;;24.84;45.86
66479;BME280;53294;47.912;13.526;2022-10-17T13:59:01;96982.50;;;24.18;47.01
66479;BME280;53294;47.912;13.526;2022-10-17T14:01:30;96987.88;;;23.72;48.39
66479;BME280;53294;47.912;13.526;2022-10-17T14:03:57;96986.16;;;23.64;48.92
66479;BME280;53294;47.912;13.526;2022-10-17T14:06:45;96990.06;;;24.02;48.31
66479;BME280;53294;47.912;13.526;2022-10-17T14:09:25;96986.28;;;24.10;46.98
66479;BME280;53294;47.912;13.526;2022-10-17T14:14:31;96994.94;;;23.54;49.32
66479;BME280;53294;47.912;13.526;2022-10-17T14:17:28;96990.78;;;23.60;48.66
66479;BME280;53294;47.912;13.526;2022-10-17T14:20:01;96995.25;;;23.48;48.96
66479;BME280;53294;47.912;13.526;2022-10-17T14:22:49;96996.22;;;23.21;49.20
66479;BME280;53294;47.912;13.526;2022-10-17T14:25:37;96993.31;;;23.69;48.74
66479;BME280;53294;47.912;13.526;2022-10-17T14:30:38;96999.69;;;24.15;48.06
66479;BME280;53294;47.912;13.526;2022-10-17T14:33:28;96999.19;;;23.87;48.14
66479;BME280;53294;47.912;13.526;2022-10-17T14:35:57;97004.22;;;23.84;48.07
66479;BME280;53294;47.912;13.526;2022-10-17T14:38:25;97001.41;;;24.00;48.25
66479;BME280;53294;47.912;13.526;2022-10-17T14:43:42;97000.59;;;23.80;48.17
66479;BME280;53294;47.912;13.526;2022-10-17T14:46:14;97000.50;;;24.39;47.08
66479;BME280;53294;47.912;13.526;2022-10-17T14:48:41;97002.38;;;24.12;47.51
66479;BME280;53294;47.912;13.526;2022-10-17T14:51:14;96999.00;;;24.22;47.38
66479;BME280;53294;47.912;13.526;2022-10-17T14:54:18;97012.19;;;24.13;47.29
66479;BME280;53294;47.912;13.526;2022-10-17T14:56:51;97016.34;;;24.26;47.47
66479;BME280;53294;47.912;13.526;2022-10-17T14:59:18;97003.03;;;24.28;47.52
66479;BME280;53294;47.912;13.526;2022-10-17T15:02:09;97008.13;;;24.49;47.19
66479;BME280;53294;47.912;13.526;2022-10-17T15:04:36;97004.34;;;24.58;46.89
66479;BME280;53294;47.912;13.526;2022-10-17T15:07:03;97004.09;;;24.43;47.05
66479;BME280;53294;47.912;13.526;2022-10-17T15:09:30;97003.03;;;24.51;46.93
66479;BME280;53294;47.912;13.526;2022-10-17T15:12:05;97001.31;;;24.63;46.28
66479;BME280;53294;47.912;13.526;2022-10-17T15:14:32;97006.53;;;24.48;46.79
66479;BME280;53294;47.912;13.526;2022-10-17T15:16:59;97000.94;;;24.41;47.13
66479;BME280;53294;47.912;13.526;2022-10-17T15:19:26;97007.88;;;24.35;47.18
66479;BME280;53294;47.912;13.526;2022-10-17T15:21:52;97015.03;;;24.40;47.52